createdAt,value
2022-09-26T02:48:00.854Z,4.70
2022-09-26T02:50:43.335Z,4.13
2022-09-26T02:53:25.287Z,3.57
2022-09-26T02:56:06.910Z,3.70
2022-09-26T02:58:43.384Z,3.70
2022-09-26T03:01:19.182Z,4.00
2022-09-26T03:03:55.902Z,3.77
2022-09-26T03:06:30.224Z,3.50
2022-09-26T03:09:01.998Z,3.50
2022-09-26T03:11:32.678Z,3.73
2022-09-26T03:14:02.802Z,3.67
2022-09-26T03:16:37.577Z,3.80
2022-09-26T03:19:14.678Z,3.90
2022-09-26T03:21:45.370Z,3.60
2022-09-26T03:24:15.711Z,3.70
2022-09-26T03:26:46.130Z,3.70
2022-09-26T03:29:16.888Z,3.70
2022-09-26T03:31:47.080Z,3.30
2022-09-26T03:34:19.573Z,3.63
2022-09-26T03:36:51.252Z,4.30
2022-09-26T03:39:21.120Z,3.60
2022-09-26T03:42:02.713Z,3.80
2022-09-26T03:44:33.755Z,2.90
2022-09-26T03:47:12.164Z,3.90
2022-09-26T03:49:47.316Z,3.63
2022-09-26T03:52:17.481Z,4.20
2022-09-26T03:54:47.911Z,3.67
2022-09-26T03:57:19.622Z,3.30
2022-09-26T04:00:07.650Z,3.27
2022-09-26T04:02:46.996Z,3.70
2022-09-26T04:05:37.028Z,3.30
2022-09-26T04:08:07.011Z,3.50
2022-09-26T04:10:39.875Z,3.80
2022-09-26T04:13:19.866Z,3.40
2022-09-26T04:16:02.037Z,4.40
2022-09-26T04:18:32.458Z,4.60
2022-09-26T04:21:09.977Z,3.50
2022-09-26T04:23:41.962Z,3.90
2022-09-26T04:26:17.516Z,3.70
2022-09-26T04:28:52.216Z,3.83
2022-09-26T04:31:23.373Z,3.83
2022-09-26T04:34:00.378Z,3.97
2022-09-26T04:36:33.346Z,4.30
2022-09-26T04:39:03.835Z,4.67
2022-09-26T04:41:33.720Z,3.90
2022-09-26T04:44:04.089Z,4.10
2022-09-26T04:46:35.290Z,4.07
2022-09-26T04:49:06.820Z,4.40
2022-09-26T04:51:39.865Z,4.40
2022-09-26T04:54:09.927Z,4.37
2022-09-26T04:56:42.094Z,4.00
2022-09-26T04:59:12.790Z,4.30
2022-09-26T05:01:57.573Z,4.70
2022-09-26T05:04:33.548Z,5.20
2022-09-26T05:07:05.993Z,5.00
2022-09-26T05:09:36.490Z,4.87
2022-09-26T05:12:20.747Z,5.03
2022-09-26T05:14:56.675Z,4.63
2022-09-26T05:17:27.133Z,4.80
2022-09-26T05:20:01.095Z,4.50
2022-09-26T05:22:44.783Z,4.67
2022-09-26T05:25:27.215Z,5.40
2022-09-26T05:27:56.991Z,5.27
2022-09-26T05:30:32.327Z,5.17
2022-09-26T05:33:02.148Z,4.73
2022-09-26T05:35:35.330Z,4.90
2022-09-26T05:38:08.725Z,6.00
2022-09-26T05:40:55.534Z,4.37
2022-09-26T05:43:28.166Z,5.27
2022-09-26T05:46:00.267Z,4.53
2022-09-26T05:48:37.068Z,5.00
2022-09-26T05:51:09.185Z,4.93
2022-09-26T05:53:45.628Z,5.40
2022-09-26T05:56:21.178Z,4.60
2022-09-26T05:59:09.727Z,4.80
2022-09-26T06:01:58.677Z,4.60
2022-09-26T06:04:49.426Z,5.53
2022-09-26T06:07:56.157Z,5.30
2022-09-26T06:10:48.094Z,4.77
2022-09-26T06:13:17.902Z,5.20
2022-09-26T06:15:52.136Z,4.33
2022-09-26T06:18:22.085Z,4.23
2022-09-26T06:20:52.828Z,4.97
2022-09-26T06:23:22.727Z,4.73
2022-09-26T06:25:55.187Z,4.90
2022-09-26T06:28:26.342Z,5.00
2022-09-26T06:30:56.526Z,4.87
2022-09-26T06:33:46.242Z,4.63
2022-09-26T06:36:26.173Z,4.80
2022-09-26T06:39:30.458Z,4.90
2022-09-26T06:42:48.989Z,4.70
2022-09-26T06:45:28.723Z,4.20
2022-09-26T06:48:14.614Z,5.87
2022-09-26T06:51:01.529Z,5.10
2022-09-26T06:53:34.903Z,5.30
2022-09-26T06:56:05.115Z,5.93
2022-09-26T06:58:37.729Z,5.00
2022-09-26T07:01:11.233Z,5.30
2022-09-26T07:03:47.259Z,5.20
2022-09-26T07:06:29.868Z,5.50
2022-09-26T07:09:03.407Z,5.00
2022-09-26T07:12:15.086Z,5.17
2022-09-26T07:14:53.499Z,5.60
2022-09-26T07:17:31.344Z,5.77
2022-09-26T07:20:20.185Z,4.83
2022-09-26T07:22:58.994Z,5.30
2022-09-26T07:25:29.333Z,4.83
2022-09-26T07:27:59.301Z,4.93
2022-09-26T07:30:41.683Z,4.77
2022-09-26T07:33:41.488Z,4.90
2022-09-26T07:36:13.596Z,5.30
2022-09-26T07:38:45.530Z,5.30
2022-09-26T07:41:15.932Z,5.40
2022-09-26T07:46:51.742Z,5.83
2022-09-26T07:49:34.251Z,5.67
2022-09-26T07:52:04.579Z,5.53
2022-09-26T07:54:46.078Z,6.00
2022-09-26T07:57:33.897Z,6.13
2022-09-26T08:00:26.456Z,6.70
2022-09-26T08:03:09.955Z,6.33
2022-09-26T08:05:41.063Z,6.93
2022-09-26T08:08:11.563Z,5.57
2022-09-26T08:11:03.928Z,6.03
2022-09-26T08:13:50.032Z,6.73
2022-09-26T08:16:41.450Z,6.60
2022-09-26T08:19:17.632Z,6.43
2022-09-26T08:21:48.344Z,6.17
2022-09-26T08:24:18.416Z,6.40
2022-09-26T08:26:48.283Z,5.50
2022-09-26T08:29:39.884Z,5.70
2022-09-26T08:32:09.946Z,7.00
2022-09-26T08:34:42.491Z,6.00
2022-09-26T08:37:31.786Z,6.10
2022-09-26T08:40:21.150Z,6.60
2022-09-26T08:43:40.097Z,6.10
2022-09-26T08:46:49.699Z,5.87
2022-09-26T08:50:02.398Z,5.47
2022-09-26T08:52:35.997Z,5.60
2022-09-26T08:55:14.547Z,6.20
2022-09-26T08:57:47.706Z,6.20
2022-09-26T09:00:21.742Z,6.07
2022-09-26T09:03:07.336Z,6.10
2022-09-26T09:05:42.991Z,5.90
2022-09-26T09:08:17.442Z,6.07
2022-09-26T09:11:11.713Z,5.47
2022-09-26T09:14:00.605Z,5.60
2022-09-26T09:16:57.756Z,4.63
2022-09-26T09:19:50.749Z,5.70
2022-09-26T09:23:12.239Z,5.23
2022-09-26T09:25:50.611Z,4.27
2022-09-26T09:28:32.308Z,5.40
2022-09-26T09:31:04.334Z,4.30
2022-09-26T09:33:55.449Z,5.00
2022-09-26T09:36:46.203Z,5.00
2022-09-26T09:39:24.276Z,5.30
2022-09-26T09:42:08.018Z,5.20
2022-09-26T09:44:48.596Z,5.07
2022-09-26T09:47:20.416Z,5.37
2022-09-26T09:49:51.587Z,4.60
2022-09-26T09:52:43.727Z,5.00
2022-09-26T09:55:23.815Z,5.23
2022-09-26T09:58:11.305Z,4.90
2022-09-26T10:00:47.830Z,5.20
2022-09-26T10:03:29.667Z,5.90
2022-09-26T10:06:02.190Z,5.37
2022-09-26T10:08:37.735Z,5.80
2022-09-26T10:11:23.086Z,5.73
2022-09-26T10:14:03.508Z,6.17
2022-09-26T10:17:20.295Z,6.60
2022-09-26T10:20:38.469Z,5.33
2022-09-26T10:23:24.367Z,5.80
2022-09-26T10:26:00.687Z,6.40
2022-09-26T10:28:35.916Z,6.20
2022-09-26T10:31:10.517Z,5.57
2022-09-26T10:34:10.879Z,5.90
2022-09-26T10:36:41.835Z,5.97
2022-09-26T10:39:33.318Z,5.43
2022-09-26T10:42:05.038Z,5.53
2022-09-26T10:44:38.885Z,5.83
2022-09-26T10:47:11.023Z,5.80
2022-09-26T10:50:02.250Z,5.63
2022-09-26T10:52:55.335Z,4.80
2022-09-26T10:55:32.323Z,5.53
2022-09-26T10:58:08.954Z,6.33
2022-09-26T11:00:46.077Z,4.87
2022-09-26T11:03:26.436Z,5.53
2022-09-26T11:06:25.666Z,5.57
2022-09-26T11:09:03.104Z,5.50
2022-09-26T11:11:42.245Z,5.17
2022-09-26T11:14:12.887Z,6.50
2022-09-26T11:16:57.319Z,6.40
2022-09-26T11:19:40.937Z,6.33
2022-09-26T11:22:17.103Z,7.57
2022-09-26T11:24:54.792Z,6.40
2022-09-26T11:27:31.280Z,6.67
2022-09-26T11:30:09.220Z,6.40
2022-09-26T11:32:47.884Z,5.90
2022-09-26T11:35:45.432Z,7.27
2022-09-26T11:38:26.423Z,6.80
2022-09-26T11:41:07.425Z,6.53
2022-09-26T11:43:47.242Z,6.57
2022-09-26T11:46:46.736Z,6.27
2022-09-26T11:49:50.121Z,6.70
2022-09-26T11:52:49.191Z,6.90
2022-09-26T11:55:24.302Z,6.10
2022-09-26T11:58:03.933Z,6.70
2022-09-26T12:00:43.850Z,5.80
2022-09-26T12:03:38.241Z,6.23
2022-09-26T12:06:20.135Z,6.13
2022-09-26T12:09:02.673Z,6.63
2022-09-26T12:11:38.157Z,5.37
2022-09-26T12:14:17.394Z,5.93
2022-09-26T12:16:51.901Z,6.13
2022-09-26T12:19:28.471Z,6.87
2022-09-26T12:22:19.127Z,6.60
2022-09-26T12:24:57.604Z,6.17
2022-09-26T12:27:33.828Z,6.90
2022-09-26T12:30:07.938Z,6.53
2022-09-26T12:32:55.613Z,6.07
2022-09-26T12:35:37.604Z,5.90
2022-09-26T12:38:28.436Z,7.63
2022-09-26T12:41:09.312Z,6.30
2022-09-26T12:43:53.181Z,5.73
2022-09-26T12:46:47.694Z,6.20
2022-09-26T12:49:41.847Z,6.33
2022-09-26T12:52:25.138Z,6.93
2022-09-26T12:55:10.927Z,6.27
2022-09-26T12:57:49.055Z,6.00
2022-09-26T13:00:21.668Z,6.87
2022-09-26T13:03:32.791Z,5.70
2022-09-26T13:06:26.232Z,6.40
2022-09-26T13:09:05.424Z,7.13
2022-09-26T13:11:48.255Z,6.30
2022-09-26T13:14:37.738Z,5.83
2022-09-26T13:17:13.499Z,5.20
2022-09-26T13:19:51.533Z,5.13
2022-09-26T13:22:31.606Z,6.03
2022-09-26T13:25:08.191Z,5.67
2022-09-26T13:27:47.087Z,5.77
2022-09-26T13:30:23.844Z,6.10
2022-09-26T13:33:00.005Z,5.47
2022-09-26T13:35:31.904Z,5.60
2022-09-26T13:38:19.176Z,5.20
2022-09-26T13:40:55.452Z,5.80
2022-09-26T13:43:43.722Z,6.50
2022-09-26T13:46:21.937Z,5.33
2022-09-26T13:49:00.971Z,5.67
2022-09-26T13:51:39.378Z,5.40
2022-09-26T13:54:19.567Z,6.33
2022-09-26T13:56:51.255Z,6.20
2022-09-26T13:59:32.377Z,6.00
2022-09-26T14:02:23.428Z,6.00
2022-09-26T14:04:55.269Z,6.60
2022-09-26T14:07:41.030Z,6.30
2022-09-26T14:10:23.157Z,5.80
2022-09-26T14:13:08.335Z,6.87
2022-09-26T14:16:05.726Z,5.80
2022-09-26T14:18:56.644Z,7.07
2022-09-26T14:21:41.045Z,7.17
2022-09-26T14:24:33.483Z,6.77
2022-09-26T14:27:28.433Z,6.67
2022-09-26T14:30:08.830Z,5.77
2022-09-26T14:32:42.043Z,5.93
2022-09-26T14:35:19.919Z,6.50
2022-09-26T14:37:52.259Z,6.50
2022-09-26T14:40:32.061Z,7.17
2022-09-26T14:43:16.622Z,7.93
2022-09-26T14:45:51.583Z,7.30
2022-09-26T14:48:32.813Z,7.83
2022-09-26T14:51:05.372Z,7.37
2022-09-26T14:53:40.315Z,5.97
2022-09-26T14:56:12.611Z,5.90
2022-09-26T14:58:52.230Z,5.90
2022-09-26T15:01:33.333Z,6.13
2022-09-26T15:04:12.653Z,5.87
2022-09-26T15:06:45.717Z,6.67
2022-09-26T15:09:21.354Z,6.03
2022-09-26T15:11:55.318Z,5.37
2022-09-26T15:14:34.116Z,6.83
2022-09-26T15:17:04.646Z,6.33
2022-09-26T15:19:39.406Z,6.67
2022-09-26T15:22:13.781Z,6.00
2022-09-26T15:24:43.616Z,6.93
2022-09-26T15:27:15.193Z,5.33
2022-09-26T15:29:48.484Z,6.67
2022-09-26T15:32:20.038Z,5.40
2022-09-26T15:34:53.877Z,5.13
2022-09-26T15:37:30.111Z,4.90
2022-09-26T15:40:01.896Z,5.27
2022-09-26T15:42:44.955Z,7.30
2022-09-26T15:45:22.631Z,6.97
2022-09-26T15:47:52.703Z,6.03
2022-09-26T15:50:30.224Z,5.80
2022-09-26T15:53:05.045Z,4.70
2022-09-26T15:55:38.660Z,5.67
2022-09-26T15:58:09.963Z,5.33
2022-09-26T16:00:40.594Z,4.93
2022-09-26T16:03:38.492Z,5.60
2022-09-26T16:06:24.710Z,6.37
2022-09-26T16:08:56.874Z,5.13
2022-09-26T16:11:27.102Z,4.93
2022-09-26T16:13:58.275Z,5.10
2022-09-26T16:16:33.842Z,5.83
2022-09-26T16:19:05.599Z,6.87
2022-09-26T16:21:39.519Z,7.20
2022-09-26T16:24:29.552Z,6.47
2022-09-26T16:27:01.022Z,5.70
2022-09-26T16:29:34.153Z,8.93
2022-09-26T16:32:04.853Z,6.50
2022-09-26T16:34:35.419Z,5.10
2022-09-26T16:37:15.294Z,4.33
2022-09-26T16:39:45.195Z,4.10
2022-09-26T16:42:17.951Z,4.47
2022-09-26T16:44:54.992Z,4.17
2022-09-26T16:47:47.785Z,4.30
2022-09-26T16:50:27.774Z,4.70
2022-09-26T16:53:00.908Z,4.70
2022-09-26T16:55:30.913Z,5.77
2022-09-26T16:58:02.312Z,5.23
2022-09-26T17:00:51.383Z,4.90
2022-09-26T17:03:24.550Z,4.03
2022-09-26T17:05:56.458Z,4.47
2022-09-26T17:08:30.161Z,4.33
2022-09-26T17:11:03.062Z,5.20
2022-09-26T17:13:35.230Z,4.73
2022-09-26T17:16:07.919Z,5.40
2022-09-26T17:18:37.823Z,4.67
2022-09-26T17:21:07.943Z,4.10
2022-09-26T17:23:42.032Z,5.30
2022-09-26T17:26:19.624Z,5.30
2022-09-26T17:28:49.876Z,4.00
2022-09-26T17:31:21.977Z,5.33
2022-09-26T17:33:53.601Z,4.60
2022-09-26T17:36:26.006Z,4.53
2022-09-26T17:39:01.146Z,5.43
2022-09-26T17:41:34.377Z,4.37
2022-09-26T17:44:04.171Z,4.97
2022-09-26T17:46:38.471Z,5.40
2022-09-26T17:49:13.694Z,4.40
2022-09-26T17:51:43.703Z,4.80
2022-09-26T17:54:21.001Z,4.63
2022-09-26T17:56:53.126Z,4.70
2022-09-26T17:59:25.057Z,4.77
2022-09-26T18:01:56.993Z,4.83
2022-09-26T18:04:28.674Z,5.60
2022-09-26T18:07:00.710Z,4.80
2022-09-26T18:09:36.087Z,5.07
2022-09-26T18:12:07.112Z,5.90
2022-09-26T18:14:38.709Z,4.80
2022-09-26T18:17:09.032Z,4.20
2022-09-26T18:19:39.078Z,4.27
2022-09-26T18:22:09.709Z,4.33
2022-09-26T18:24:42.948Z,5.60
2022-09-26T18:27:14.318Z,5.50
2022-09-26T18:29:47.365Z,5.57
2022-09-26T18:32:25.294Z,5.80
2022-09-26T18:34:56.671Z,5.10
2022-09-26T18:37:26.654Z,5.27
2022-09-26T18:40:03.577Z,5.37
2022-09-26T18:42:35.534Z,5.17
2022-09-26T18:45:07.971Z,5.57
2022-09-26T18:47:42.529Z,5.07
2022-09-26T18:50:21.842Z,5.10
2022-09-26T18:52:52.231Z,5.00
2022-09-26T18:55:39.025Z,5.70
2022-09-26T18:58:21.404Z,5.87
2022-09-26T19:00:54.445Z,5.97
2022-09-26T19:03:25.043Z,6.47
2022-09-26T19:05:56.056Z,7.80
2022-09-26T19:08:35.754Z,6.33
2022-09-26T19:11:12.981Z,4.80
2022-09-26T19:13:43.278Z,5.10
2022-09-26T19:16:13.307Z,4.37
2022-09-26T19:18:43.534Z,4.43
2022-09-26T19:21:20.477Z,5.17
2022-09-26T19:23:52.152Z,5.40
2022-09-26T19:26:28.318Z,6.73
2022-09-26T19:28:59.264Z,6.10
2022-09-26T19:31:29.624Z,7.03
2022-09-26T19:33:59.738Z,7.40
2022-09-26T19:36:29.643Z,7.80
2022-09-26T19:38:59.477Z,7.63
2022-09-26T19:41:32.805Z,7.77
2022-09-26T19:44:02.816Z,6.57
2022-09-26T19:46:32.896Z,8.50
2022-09-26T19:49:03.208Z,7.60
2022-09-26T19:51:34.466Z,7.17
2022-09-26T19:54:06.391Z,8.30
2022-09-26T19:56:40.544Z,6.23
2022-09-26T19:59:11.808Z,6.30
2022-09-26T20:01:42.507Z,7.53
2022-09-26T20:04:17.161Z,7.00
2022-09-26T20:06:48.015Z,7.60
2022-09-26T20:09:20.207Z,7.97
2022-09-26T20:11:52.640Z,6.73
2022-09-26T20:14:28.648Z,7.30
2022-09-26T20:17:01.961Z,7.20
2022-09-26T20:19:37.975Z,7.30
2022-09-26T20:22:10.201Z,5.97
2022-09-26T20:24:40.577Z,6.77
2022-09-26T20:27:18.097Z,6.77
2022-09-26T20:30:00.614Z,7.00
2022-09-26T20:32:30.577Z,6.30
2022-09-26T20:35:00.812Z,6.17
2022-09-26T20:37:31.258Z,6.63
2022-09-26T20:40:01.319Z,6.37
2022-09-26T20:42:37.122Z,6.90
2022-09-26T20:45:09.682Z,7.00
2022-09-26T20:47:40.442Z,7.63
2022-09-26T20:50:10.614Z,6.67
2022-09-26T20:52:42.563Z,6.33
2022-09-26T20:55:17.971Z,7.20
2022-09-26T20:57:50.867Z,6.77
2022-09-26T21:00:22.149Z,6.33
2022-09-26T21:02:56.440Z,7.10
2022-09-26T21:05:28.142Z,7.33
2022-09-26T21:07:59.030Z,7.70
2022-09-26T21:10:30.773Z,9.07
2022-09-26T21:13:03.725Z,7.30
2022-09-26T21:15:35.391Z,7.90
2022-09-26T21:18:05.647Z,7.20
2022-09-26T21:20:36.847Z,6.30
2022-09-26T21:23:19.270Z,7.20
2022-09-26T21:25:49.111Z,6.97
2022-09-26T21:28:27.068Z,6.80
2022-09-26T21:30:58.109Z,7.20
2022-09-26T21:33:28.094Z,7.63
2022-09-26T21:35:58.252Z,7.10
2022-09-26T21:38:28.403Z,6.53
2022-09-26T21:41:00.548Z,6.90
2022-09-26T21:43:35.938Z,7.50
2022-09-26T21:46:06.894Z,7.30
2022-09-26T21:48:37.005Z,7.03
2022-09-26T21:51:09.571Z,6.67
2022-09-26T21:53:45.669Z,6.17
2022-09-26T21:56:19.546Z,6.03
2022-09-26T21:58:53.069Z,5.93
2022-09-26T22:01:24.546Z,5.80
2022-09-26T22:03:54.727Z,5.50
2022-09-26T22:06:24.879Z,5.93
2022-09-26T22:08:54.680Z,5.20
2022-09-26T22:11:24.541Z,6.23
2022-09-26T22:13:57.135Z,5.83
2022-09-26T22:16:28.702Z,4.93
2022-09-26T22:18:58.649Z,4.90
2022-09-26T22:21:35.199Z,5.20
2022-09-26T22:24:05.262Z,4.70
2022-09-26T22:26:35.068Z,5.37
2022-09-26T22:29:07.697Z,5.23
2022-09-26T22:31:38.071Z,5.20
2022-09-26T22:34:07.884Z,4.90
2022-09-26T22:36:38.656Z,4.70
2022-09-26T22:39:08.792Z,5.03
2022-09-26T22:41:38.633Z,5.10
2022-09-26T22:44:11.002Z,5.03
2022-09-26T22:46:40.980Z,4.97
2022-09-26T22:49:10.979Z,4.17
2022-09-26T22:51:41.147Z,5.20
2022-09-26T22:54:11.083Z,4.60
2022-09-26T22:56:40.929Z,4.10
2022-09-26T22:59:13.539Z,3.97
2022-09-26T23:01:44.146Z,5.33
2022-09-26T23:04:14.853Z,4.93
2022-09-26T23:06:44.802Z,7.53
2022-09-26T23:09:14.654Z,5.23
2022-09-26T23:11:44.668Z,5.53
2022-09-26T23:14:17.047Z,5.40
2022-09-26T23:16:46.923Z,6.60
2022-09-26T23:19:16.770Z,5.20
2022-09-26T23:21:48.282Z,5.90
2022-09-26T23:24:18.223Z,6.30
2022-09-26T23:26:48.497Z,6.50
2022-09-26T23:29:21.007Z,5.40
2022-09-26T23:31:51.320Z,7.30
2022-09-26T23:34:21.165Z,6.93
2022-09-26T23:36:50.973Z,6.60
2022-09-26T23:39:21.025Z,7.13
2022-09-26T23:41:50.832Z,7.30
2022-09-26T23:44:23.386Z,8.00
2022-09-26T23:46:53.220Z,7.40
2022-09-26T23:49:23.085Z,7.50
2022-09-26T23:51:53.024Z,8.40
2022-09-26T23:54:22.894Z,8.63
2022-09-26T23:57:00.999Z,7.00
2022-09-26T23:59:35.262Z,8.60
